Buoy 52609

sailwx.info

Track history (hours):
 
Tides and Currents Weather Stations Pressure Air Temp Water Temp Dewpoint Dewpoint Depression Visibility Wind Speed Wind Dir Waves Ship Positions

Drifting buoy 52609

Last reported at 2015-Jul-08 05:00 UTC. Time now 2015-Jul-08 06:30 UTC.
Position N 23°14' E 128°15'.

Water temperature 30.1 ° C

Date/timePositionNaut miles runAvg speedWind from/ knotsBaromVisibWave heightAir tempDewpointWater temp
2015-Jul-08 05:00N 23°14' E 128°15'8 1.1 30.1
2015-Jul-07 22:00N 23°13' E 128°23'8 2.0 30.0
2015-Jul-07 18:00N 23°11' E 128°32'0 0.0 30.1
2015-Jul-07 17:00N 23°11' E 128°32'2 0.4 30.1
2015-Jul-07 13:00N 23°11' E 128°33'3 0.9 30.2
2015-Jul-07 09:00N 23°10' E 128°37'1 1.0 30.3
2015-Jul-07 08:00N 23°09' E 128°38'12 1.1 30.3
2015-Jul-06 21:00N 23°02' E 128°48'1 0.5 29.9
2015-Jul-06 20:00N 23°02' E 128°48'3 1.3 29.9
2015-Jul-06 18:00N 22°60' E 128°49'0 0.0 30.0
2015-Jul-06 17:00N 22°60' E 128°49'8 1.3 30.0
2015-Jul-06 11:00N 22°54' E 128°56'3 1.5 30.0
2015-Jul-06 09:00N 22°51' E 128°57'12 1.1 30.1
2015-Jul-05 22:00N 22°41' E 129°04'2 1.6 29.9
2015-Jul-05 21:00N 22°40' E 129°04'3 1.1 29.9
2015-Jul-05 18:00N 22°36' E 129°04'3 3.2 29.9
2015-Jul-05 17:00N 22°33' E 129°05'0 0.0 29.9
2015-Jul-05 16:00N 22°33' E 129°05'11 1.4 29.9
2015-Jul-05 08:00N 22°23' E 129°10'5 1.2 30.1
2015-Jul-05 04:00N 22°19' E 129°12'1 0.6 30.1
2015-Jul-05 02:00N 22°18' E 129°13'6 1.1 30.0
2015-Jul-04 21:00N 22°13' E 129°14'8 0.8 29.9
2015-Jul-04 11:00N 22°05' E 129°13'5 1.1 30.0
2015-Jul-04 06:00N 21°60' E 129°15'1 1.1 30.1
2015-Jul-04 05:00N 21°59' E 129°15'0 0.0 30.1
2015-Jul-04 04:00N 21°59' E 129°15'1 0.7 30.1
2015-Jul-04 03:00N 21°58' E 129°14'2 0.3 30.0
2015-Jul-03 21:00N 21°57' E 129°14'0 0.1 29.9
2015-Jul-03 20:00N 21°57' E 129°14'1 0.7 29.9
2015-Jul-03 18:00N 21°57' E 129°13'4 0.6 30.0
2015-Jul-03 11:00N 21°54' E 129°09'2 1.1 30.1
2015-Jul-03 09:00N 21°53' E 129°07'0 0.2 30.1
2015-Jul-03 08:00N 21°53' E 129°07'1 1.4 30.1
2015-Jul-03 07:00N 21°52' E 129°06'0 0.2 30.1
2015-Jul-03 06:00N 21°51' E 129°06'1 0.9 30.2
2015-Jul-03 05:00N 21°51' E 129°05'4 0.4 30.2
2015-Jul-02 20:00N 21°51' E 129°01'4 1.2 30.1
2015-Jul-02 17:00N 21°53' E 128°58'0 0.0 30.1
2015-Jul-02 16:00N 21°53' E 128°58'8 2.1 30.1
2015-Jul-02 12:00N 21°53' E 128°49'0 0.0 30.2
2015-Jul-02 11:00N 21°53' E 128°49'3 0.8 30.3
2015-Jul-02 07:00N 21°51' E 128°45'7 0.8 30.5
2015-Jul-01 22:00N 21°52' E 128°38'5 1.8 29.9
2015-Jul-01 19:00N 21°54' E 128°33'10 1.7 29.9
2015-Jul-01 13:00N 21°56' E 128°22'2 1.6 30.0
2015-Jul-01 12:00N 21°57' E 128°20'5 1.8 30.1
2015-Jul-01 09:00N 21°57' E 128°14'0 0.1 30.1
2015-Jul-01 08:00N 21°57' E 128°14'14 1.3 30.2
2015-Jun-30 21:00N 21°59' E 127°59'1 0.9 30.0
2015-Jun-30 20:00N 21°59' E 127°58'11 1.0 30.0
2015-Jun-30 09:00N 22°01' E 127°46'4 1.0 30.4
2015-Jun-30 05:00N 22°01' E 127°42'6 0.8 30.4
2015-Jun-29 22:00N 22°00' E 127°37'8 0.8 30.1
2015-Jun-29 11:00N 21°59' E 127°28'1 0.4 30.5
2015-Jun-29 09:00N 21°58' E 127°28'1 0.8 30.5
2015-Jun-29 08:00N 21°58' E 127°27'2 0.5 30.6
2015-Jun-29 05:00N 21°57' E 127°26'4 0.6 30.6
2015-Jun-28 22:00N 21°54' E 127°23'1 0.6 30.1
2015-Jun-28 20:00N 21°52' E 127°23'5 0.5 30.1
2015-Jun-28 09:00N 21°49' E 127°19'1 1.0 30.3
2015-Jun-28 08:00N 21°48' E 127°18'   30.3
Track history (hours):
 
Tides and Currents Weather Stations Pressure Air Temp Water Temp Dewpoint Dewpoint Depression Visibility Wind Speed Wind Dir Waves Ship Positions

Drifting buoy 52609

Last reported at 2015-Jul-08 05:00 UTC. Time now 2015-Jul-08 06:30 UTC.
Position N 23°14' E 128°15'.

Water temperature 30.1 ° C

Date/timePositionNaut miles runAvg speedWind from/ knotsBaromVisibWave heightAir tempDewpointWater temp
2015-Jul-08 05:00N 23°14' E 128°15'8 1.1 30.1
2015-Jul-07 22:00N 23°13' E 128°23'8 2.0 30.0
2015-Jul-07 18:00N 23°11' E 128°32'0 0.0 30.1
2015-Jul-07 17:00N 23°11' E 128°32'2 0.4 30.1
2015-Jul-07 13:00N 23°11' E 128°33'3 0.9 30.2
2015-Jul-07 09:00N 23°10' E 128°37'1 1.0 30.3
2015-Jul-07 08:00N 23°09' E 128°38'12 1.1 30.3
2015-Jul-06 21:00N 23°02' E 128°48'1 0.5 29.9
2015-Jul-06 20:00N 23°02' E 128°48'3 1.3 29.9
2015-Jul-06 18:00N 22°60' E 128°49'0 0.0 30.0
2015-Jul-06 17:00N 22°60' E 128°49'8 1.3 30.0
2015-Jul-06 11:00N 22°54' E 128°56'3 1.5 30.0
2015-Jul-06 09:00N 22°51' E 128°57'12 1.1 30.1
2015-Jul-05 22:00N 22°41' E 129°04'2 1.6 29.9
2015-Jul-05 21:00N 22°40' E 129°04'3 1.1 29.9
2015-Jul-05 18:00N 22°36' E 129°04'3 3.2 29.9
2015-Jul-05 17:00N 22°33' E 129°05'0 0.0 29.9
2015-Jul-05 16:00N 22°33' E 129°05'11 1.4 29.9
2015-Jul-05 08:00N 22°23' E 129°10'5 1.2 30.1
2015-Jul-05 04:00N 22°19' E 129°12'1 0.6 30.1
2015-Jul-05 02:00N 22°18' E 129°13'6 1.1 30.0
2015-Jul-04 21:00N 22°13' E 129°14'8 0.8 29.9
2015-Jul-04 11:00N 22°05' E 129°13'5 1.1 30.0
2015-Jul-04 06:00N 21°60' E 129°15'1 1.1 30.1
2015-Jul-04 05:00N 21°59' E 129°15'0 0.0 30.1
2015-Jul-04 04:00N 21°59' E 129°15'1 0.7 30.1
2015-Jul-04 03:00N 21°58' E 129°14'2 0.3 30.0
2015-Jul-03 21:00N 21°57' E 129°14'0 0.1 29.9
2015-Jul-03 20:00N 21°57' E 129°14'1 0.7 29.9
2015-Jul-03 18:00N 21°57' E 129°13'4 0.6 30.0
2015-Jul-03 11:00N 21°54' E 129°09'2 1.1 30.1
2015-Jul-03 09:00N 21°53' E 129°07'0 0.2 30.1
2015-Jul-03 08:00N 21°53' E 129°07'1 1.4 30.1
2015-Jul-03 07:00N 21°52' E 129°06'0 0.2 30.1
2015-Jul-03 06:00N 21°51' E 129°06'1 0.9 30.2
2015-Jul-03 05:00N 21°51' E 129°05'4 0.4 30.2
2015-Jul-02 20:00N 21°51' E 129°01'4 1.2 30.1
2015-Jul-02 17:00N 21°53' E 128°58'0 0.0 30.1
2015-Jul-02 16:00N 21°53' E 128°58'8 2.1 30.1
2015-Jul-02 12:00N 21°53' E 128°49'0 0.0 30.2
2015-Jul-02 11:00N 21°53' E 128°49'3 0.8 30.3
2015-Jul-02 07:00N 21°51' E 128°45'7 0.8 30.5
2015-Jul-01 22:00N 21°52' E 128°38'5 1.8 29.9
2015-Jul-01 19:00N 21°54' E 128°33'10 1.7 29.9
2015-Jul-01 13:00N 21°56' E 128°22'2 1.6 30.0
2015-Jul-01 12:00N 21°57' E 128°20'5 1.8 30.1
2015-Jul-01 09:00N 21°57' E 128°14'0 0.1 30.1
2015-Jul-01 08:00N 21°57' E 128°14'14 1.3 30.2
2015-Jun-30 21:00N 21°59' E 127°59'1 0.9 30.0
2015-Jun-30 20:00N 21°59' E 127°58'11 1.0 30.0
2015-Jun-30 09:00N 22°01' E 127°46'4 1.0 30.4
2015-Jun-30 05:00N 22°01' E 127°42'6 0.8 30.4
2015-Jun-29 22:00N 22°00' E 127°37'8 0.8 30.1
2015-Jun-29 11:00N 21°59' E 127°28'1 0.4 30.5
2015-Jun-29 09:00N 21°58' E 127°28'1 0.8 30.5
2015-Jun-29 08:00N 21°58' E 127°27'2 0.5 30.6
2015-Jun-29 05:00N 21°57' E 127°26'4 0.6 30.6
2015-Jun-28 22:00N 21°54' E 127°23'1 0.6 30.1
2015-Jun-28 20:00N 21°52' E 127°23'5 0.5 30.1
2015-Jun-28 09:00N 21°49' E 127°19'1 1.0 30.3
2015-Jun-28 08:00N 21°48' E 127°18'   30.3

Dump ship's entire track history